createdAt,value
2019-04-20T00:01:58.165Z,39.80
2019-04-20T00:04:30.618Z,39.80
2019-04-20T00:06:57.409Z,39.80
2019-04-20T00:09:31.050Z,40.00
2019-04-20T00:12:08.925Z,40.10
2019-04-20T00:14:32.881Z,40.20
2019-04-20T00:17:02.947Z,40.30
2019-04-20T00:19:40.033Z,40.50
2019-04-20T00:22:12.319Z,40.80
2019-04-20T00:25:05.136Z,40.80
2019-04-20T00:27:52.596Z,40.80
2019-04-20T00:30:26.222Z,41.00
2019-04-20T00:32:46.912Z,41.10
2019-04-20T00:35:06.306Z,41.10
2019-04-20T00:37:38.548Z,41.20
2019-04-20T00:40:07.849Z,41.30
2019-04-20T00:42:45.261Z,41.50
2019-04-20T00:45:15.472Z,42.10
2019-04-20T00:47:47.695Z,41.50
2019-04-20T00:50:28.357Z,41.70
2019-04-20T00:52:55.529Z,41.80
2019-04-20T00:55:19.084Z,41.90
2019-04-20T00:57:54.915Z,42.10
2019-04-20T01:00:37.169Z,42.10
2019-04-20T01:03:04.255Z,42.10
2019-04-20T01:06:02.249Z,42.20
2019-04-20T01:08:25.479Z,42.20
2019-04-20T01:10:57.680Z,42.40
2019-04-20T01:13:26.856Z,42.40
2019-04-20T01:16:03.275Z,42.50
2019-04-20T01:18:27.150Z,42.60
2019-04-20T01:20:59.121Z,42.70
2019-04-20T01:23:35.465Z,42.60
2019-04-20T01:26:04.021Z,42.70
2019-04-20T01:28:47.402Z,42.80
2019-04-20T01:31:12.689Z,42.80
2019-04-20T01:33:43.818Z,43.00
2019-04-20T01:36:19.958Z,43.00
2019-04-20T01:38:49.818Z,43.00
2019-04-20T01:41:03.338Z,43.20
2019-04-20T01:43:33.225Z,43.40
2019-04-20T01:46:10.763Z,43.60
2019-04-20T01:48:36.489Z,43.60
2019-04-20T01:51:13.394Z,43.70
2019-04-20T01:53:51.370Z,43.70
2019-04-20T01:56:22.197Z,43.70
2019-04-20T01:59:16.001Z,43.70
2019-04-20T02:01:59.333Z,43.80
2019-04-20T02:04:36.008Z,43.90
2019-04-20T02:07:04.933Z,44.00
2019-04-20T02:09:43.325Z,44.20
2019-04-20T02:12:13.538Z,44.10
2019-04-20T02:14:46.290Z,44.20
2019-04-20T02:17:21.351Z,44.30
2019-04-20T02:20:05.495Z,44.40
2019-04-20T02:22:30.260Z,44.60
2019-04-20T02:24:44.730Z,44.50
2019-04-20T02:27:14.732Z,44.70
2019-04-20T02:30:07.646Z,44.70
2019-04-20T02:32:53.127Z,44.80
2019-04-20T02:35:42.610Z,45.00
2019-04-20T02:38:25.038Z,44.90
2019-04-20T02:40:56.838Z,45.00
2019-04-20T02:43:28.428Z,45.10
2019-04-20T02:45:50.870Z,44.90
2019-04-20T02:48:23.492Z,45.00
2019-04-20T02:53:30.171Z,45.50
2019-04-20T02:56:12.516Z,45.40
2019-04-20T02:58:34.838Z,45.40
2019-04-20T03:00:52.718Z,45.50
2019-04-20T03:03:11.308Z,45.70
2019-04-20T03:05:40.594Z,45.70
2019-04-20T03:08:17.650Z,45.90
2019-04-20T03:11:05.865Z,46.00
2019-04-20T03:13:29.880Z,46.00
2019-04-20T03:15:56.221Z,46.10
2019-04-20T03:18:25.555Z,46.20
2019-04-20T03:20:54.996Z,46.20
2019-04-20T03:23:33.563Z,47.00
2019-04-20T03:26:09.482Z,46.50
2019-04-20T03:28:51.500Z,46.80
2019-04-20T03:36:34.899Z,47.00
2019-04-20T03:38:54.766Z,47.10
2019-04-20T03:41:18.410Z,47.20
2019-04-20T03:43:38.968Z,47.30
2019-04-20T03:46:12.576Z,47.40
2019-04-20T03:48:54.646Z,47.40
2019-04-20T03:51:35.918Z,47.70
2019-04-20T03:54:22.314Z,47.60
2019-04-20T03:57:21.412Z,47.90
2019-04-20T04:00:22.036Z,48.00
2019-04-20T04:03:10.961Z,48.20
2019-04-20T04:05:31.047Z,48.50
2019-04-20T04:07:58.182Z,48.60
2019-04-20T04:10:30.424Z,48.50
2019-04-20T04:13:11.749Z,48.60
2019-04-20T04:15:48.318Z,48.50
2019-04-20T04:18:22.975Z,48.70
2019-04-20T04:20:52.098Z,48.70
2019-04-20T04:23:33.698Z,49.10
2019-04-20T04:26:03.585Z,49.10
2019-04-20T04:28:36.980Z,49.20
2019-04-20T04:31:08.114Z,49.40
2019-04-20T04:33:52.206Z,49.50
2019-04-20T04:36:07.098Z,49.60
2019-04-20T04:41:20.293Z,49.60
2019-04-20T04:43:40.061Z,49.80
2019-04-20T04:45:55.504Z,49.70
2019-04-20T04:48:29.868Z,50.00
2019-04-20T04:51:03.154Z,49.80
2019-04-20T04:53:42.886Z,50.50
2019-04-20T04:56:04.925Z,50.00
2019-04-20T04:58:29.821Z,50.20
2019-04-20T05:01:05.551Z,50.10
2019-04-20T05:03:58.290Z,50.20
2019-04-20T05:06:31.519Z,50.70
2019-04-20T05:08:51.482Z,50.20
2019-04-20T05:11:17.891Z,50.40
2019-04-20T05:13:55.987Z,50.40
2019-04-20T05:16:38.461Z,50.50
2019-04-20T05:19:17.338Z,50.80
2019-04-20T05:21:56.574Z,50.90
2019-04-20T05:24:26.926Z,50.90
2019-04-20T05:27:09.365Z,50.90
2019-04-20T05:29:25.032Z,50.90
2019-04-20T05:31:58.179Z,51.10
2019-04-20T05:34:45.398Z,51.10
2019-04-20T05:37:20.826Z,51.20
2019-04-20T05:39:44.451Z,51.40
2019-04-20T05:42:20.368Z,51.40
2019-04-20T05:44:48.604Z,51.60
2019-04-20T05:47:18.142Z,51.60
2019-04-20T05:49:46.797Z,51.60
2019-04-20T05:52:31.554Z,51.70
2019-04-20T05:54:51.211Z,51.80
2019-04-20T05:57:27.844Z,51.80
2019-04-20T05:59:55.960Z,51.90
2019-04-20T06:02:29.341Z,52.00
2019-04-20T06:07:31.438Z,52.50
2019-04-20T06:10:05.986Z,52.90
2019-04-20T06:12:35.822Z,52.20
2019-04-20T06:15:21.100Z,52.10
2019-04-20T06:18:02.511Z,52.00
2019-04-20T06:20:43.858Z,52.10
2019-04-20T06:23:33.830Z,52.20
2019-04-20T06:26:20.651Z,52.20
2019-04-20T06:28:27.609Z,52.30
2019-04-20T06:30:52.838Z,52.30
2019-04-20T06:39:16.211Z,52.60
2019-04-20T06:42:15.224Z,52.40
2019-04-20T06:49:35.439Z,52.10
2019-04-20T06:52:26.206Z,52.00
2019-04-20T06:55:35.069Z,52.20
2019-04-20T06:57:45.436Z,52.00
2019-04-20T07:00:15.821Z,51.80
2019-04-20T07:02:53.001Z,51.90
2019-04-20T07:05:19.015Z,51.90
2019-04-20T07:07:54.557Z,51.90
2019-04-20T07:10:25.321Z,52.00
2019-04-20T07:12:49.579Z,52.10
2019-04-20T07:15:29.033Z,52.20
2019-04-20T07:18:01.766Z,52.20
2019-04-20T07:21:16.075Z,51.90
2019-04-20T07:26:07.757Z,52.00
2019-04-20T07:28:35.344Z,51.90
2019-04-20T07:31:03.057Z,51.80
2019-04-20T07:33:34.950Z,51.70
2019-04-20T07:36:05.805Z,51.80
2019-04-20T07:41:17.430Z,51.70
2019-04-20T07:43:51.176Z,51.80
2019-04-20T07:46:11.762Z,51.90
2019-04-20T07:48:37.487Z,51.70
2019-04-20T07:50:59.209Z,51.60
2019-04-20T07:53:33.217Z,51.60
2019-04-20T07:56:07.266Z,51.90
2019-04-20T07:58:30.498Z,52.00
2019-04-20T08:01:40.213Z,52.00
2019-04-20T08:04:07.819Z,52.00
2019-04-20T08:06:37.875Z,52.00
2019-04-20T08:09:15.779Z,51.70
2019-04-20T08:11:56.643Z,51.70
2019-04-20T08:14:27.121Z,51.70
2019-04-20T08:17:09.581Z,51.90
2019-04-20T08:19:32.544Z,51.90
2019-04-20T08:21:58.547Z,51.80
2019-04-20T08:24:31.470Z,51.60
2019-04-20T08:26:50.214Z,51.60
2019-04-20T08:29:47.552Z,51.50
2019-04-20T08:32:38.894Z,51.60
2019-04-20T08:35:13.919Z,51.50
2019-04-20T08:37:46.975Z,51.70
2019-04-20T08:40:12.241Z,51.70
2019-04-20T08:42:57.196Z,51.70
2019-04-20T08:45:16.435Z,51.80
2019-04-20T08:47:53.333Z,51.80
2019-04-20T08:55:19.842Z,51.60
2019-04-20T08:57:31.695Z,51.70
2019-04-20T09:00:04.577Z,51.60
2019-04-20T09:02:32.635Z,51.60
2019-04-20T09:05:11.503Z,51.40
2019-04-20T09:07:40.833Z,51.30
2019-04-20T09:10:30.792Z,51.40
2019-04-20T09:12:50.706Z,51.10
2019-04-20T09:15:08.281Z,51.30
2019-04-20T09:17:49.503Z,51.30
2019-04-20T09:20:26.979Z,51.30
2019-04-20T09:23:08.148Z,51.10
2019-04-20T09:25:57.928Z,50.80
2019-04-20T09:28:18.749Z,51.40
2019-04-20T09:30:54.412Z,51.00
2019-04-20T09:33:59.697Z,50.70
2019-04-20T09:36:23.725Z,50.70
2019-04-20T09:39:25.670Z,50.60
2019-04-20T09:42:01.416Z,50.10
2019-04-20T09:44:38.437Z,49.40
2019-04-20T09:47:03.239Z,49.70
2019-04-20T09:49:42.841Z,49.80
2019-04-20T09:52:16.889Z,49.50
2019-04-20T09:54:57.937Z,49.10
2019-04-20T09:57:30.680Z,49.00
2019-04-20T09:59:57.708Z,48.20
2019-04-20T10:02:16.746Z,48.10
2019-04-20T10:04:41.781Z,47.70
2019-04-20T10:07:16.601Z,47.30
2019-04-20T10:09:46.629Z,45.00
2019-04-20T10:12:19.833Z,44.70
2019-04-20T10:14:49.179Z,44.20
2019-04-20T10:17:20.084Z,44.00
2019-04-20T10:19:49.851Z,44.40
2019-04-20T10:22:22.532Z,45.20
2019-04-20T10:24:53.824Z,45.30
2019-04-20T10:27:24.200Z,45.20
2019-04-20T10:29:56.092Z,45.00
2019-04-20T10:32:34.184Z,43.70
2019-04-20T10:34:56.837Z,43.10
2019-04-20T10:37:33.650Z,43.50
2019-04-20T10:40:04.739Z,43.60
2019-04-20T10:42:34.658Z,43.00
2019-04-20T10:45:05.862Z,42.50
2019-04-20T10:47:45.265Z,42.50
2019-04-20T10:50:16.872Z,42.30
2019-04-20T10:52:46.268Z,41.10
2019-04-20T10:55:16.530Z,41.10
2019-04-20T10:57:45.900Z,41.30
2019-04-20T11:00:17.426Z,41.30
2019-04-20T11:02:48.042Z,41.20
2019-04-20T11:05:17.822Z,41.70
2019-04-20T11:07:48.129Z,41.20
2019-04-20T11:10:22.804Z,40.00
2019-04-20T11:12:48.576Z,40.10
2019-04-20T11:15:18.680Z,40.20
2019-04-20T11:17:49.113Z,39.90
2019-04-20T11:20:19.242Z,39.60
2019-04-20T11:22:50.536Z,39.70
2019-04-20T11:25:19.953Z,39.90
2019-04-20T11:27:50.096Z,40.00
2019-04-20T11:30:20.387Z,40.00
2019-04-20T11:32:51.948Z,39.20
2019-04-20T11:35:28.017Z,39.50
2019-04-20T11:37:53.266Z,39.90
2019-04-20T11:40:24.489Z,40.00
2019-04-20T11:42:53.609Z,39.60
2019-04-20T11:45:22.968Z,39.90
2019-04-20T11:47:53.481Z,40.20
2019-04-20T11:50:22.915Z,40.70
2019-04-20T11:52:53.088Z,40.50
2019-04-20T11:55:22.463Z,39.70
2019-04-20T11:57:51.559Z,39.00
2019-04-20T12:00:26.271Z,39.20
2019-04-20T12:03:25.088Z,39.00
2019-04-20T12:05:53.182Z,39.50
2019-04-20T12:08:19.019Z,39.20
2019-04-20T12:10:54.084Z,39.50
2019-04-20T12:13:20.521Z,39.20
2019-04-20T12:15:51.728Z,39.20
2019-04-20T12:18:21.298Z,39.30
2019-04-20T12:20:50.795Z,39.10
2019-04-20T12:23:20.266Z,38.50
2019-04-20T12:25:50.198Z,39.20
2019-04-20T12:28:19.905Z,38.70
2019-04-20T12:30:48.992Z,38.60
2019-04-20T12:33:17.966Z,38.50
2019-04-20T12:35:48.044Z,38.70
2019-04-20T12:38:17.281Z,38.80
2019-04-20T12:40:46.447Z,38.40
2019-04-20T12:43:17.187Z,38.30
2019-04-20T12:45:47.681Z,38.20
2019-04-20T12:48:17.609Z,37.20
2019-04-20T12:50:47.944Z,36.50
2019-04-20T12:53:17.335Z,36.50
2019-04-20T12:55:46.748Z,35.90
2019-04-20T12:58:16.713Z,36.50
2019-04-20T13:00:49.603Z,35.30
2019-04-20T13:03:19.416Z,35.40
2019-04-20T13:05:50.043Z,35.20
2019-04-20T13:08:25.768Z,35.50
2019-04-20T13:11:08.988Z,35.60
2019-04-20T13:13:46.151Z,35.70
2019-04-20T13:16:26.105Z,36.10
2019-04-20T13:19:01.580Z,36.10
2019-04-20T13:21:31.151Z,36.00
2019-04-20T13:24:03.265Z,35.60
2019-04-20T13:26:33.179Z,36.30
2019-04-20T13:29:02.575Z,36.70
2019-04-20T13:31:31.976Z,37.00
2019-04-20T13:34:01.515Z,36.40
2019-04-20T13:36:32.533Z,35.60
2019-04-20T13:39:03.904Z,35.70
2019-04-20T13:41:33.740Z,36.20
2019-04-20T13:44:04.804Z,36.10
2019-04-20T13:46:33.950Z,36.10
2019-04-20T13:49:07.040Z,35.60
2019-04-20T13:51:36.945Z,35.50
2019-04-20T13:54:13.232Z,35.60
2019-04-20T13:56:37.726Z,35.30
2019-04-20T13:59:25.825Z,35.30
2019-04-20T14:02:00.828Z,35.50
2019-04-20T14:04:59.011Z,34.60
2019-04-20T14:07:29.691Z,34.60
2019-04-20T14:09:59.493Z,34.90
2019-04-20T14:12:37.204Z,35.10
2019-04-20T14:15:02.845Z,34.90
2019-04-20T14:17:32.976Z,34.80
2019-04-20T14:20:11.435Z,34.80
2019-04-20T14:22:35.276Z,35.00
2019-04-20T14:25:05.119Z,35.10
2019-04-20T14:27:34.994Z,35.20
2019-04-20T14:30:04.772Z,34.80
2019-04-20T14:32:34.575Z,34.80
2019-04-20T14:35:04.978Z,34.70
2019-04-20T14:37:35.893Z,35.80
2019-04-20T14:40:06.227Z,36.50
2019-04-20T14:42:44.056Z,36.90
2019-04-20T14:45:07.130Z,37.30
2019-04-20T14:47:39.812Z,37.50
2019-04-20T14:50:09.764Z,37.30
2019-04-20T14:52:39.718Z,37.40
2019-04-20T14:55:12.426Z,37.30
2019-04-20T14:57:41.410Z,37.00
2019-04-20T15:00:27.710Z,37.10
2019-04-20T15:02:59.845Z,37.00
2019-04-20T15:05:29.056Z,36.80
2019-04-20T15:08:00.547Z,36.90
2019-04-20T15:10:31.386Z,36.90
2019-04-20T15:13:03.418Z,36.50
2019-04-20T15:15:34.593Z,36.50
2019-04-20T15:18:09.578Z,36.30
2019-04-20T15:20:42.068Z,36.10
2019-04-20T15:23:21.357Z,36.20
2019-04-20T15:25:50.946Z,36.20
2019-04-20T15:28:20.641Z,36.00
2019-04-20T15:30:50.337Z,35.90
2019-04-20T15:33:20.961Z,35.70
2019-04-20T15:35:50.382Z,35.70
2019-04-20T15:38:20.901Z,35.70
2019-04-20T15:40:51.110Z,35.80
2019-04-20T15:43:24.026Z,35.80
2019-04-20T15:45:51.649Z,35.40
2019-04-20T15:48:22.001Z,35.10
2019-04-20T15:50:51.868Z,35.00
2019-04-20T15:53:21.779Z,34.60
2019-04-20T15:55:52.371Z,34.80
2019-04-20T15:58:22.720Z,34.00
2019-04-20T16:00:52.835Z,34.20
2019-04-20T16:03:37.337Z,34.30
2019-04-20T16:06:09.290Z,33.90
2019-04-20T16:08:39.871Z,33.90
2019-04-20T16:11:11.103Z,33.70
2019-04-20T16:13:44.715Z,33.40
2019-04-20T16:16:12.309Z,33.50
2019-04-20T16:18:43.237Z,33.40
2019-04-20T16:21:18.238Z,33.40
2019-04-20T16:24:01.616Z,33.20
2019-04-20T16:26:38.010Z,33.40
2019-04-20T16:29:08.304Z,33.00
2019-04-20T16:31:38.422Z,33.20
2019-04-20T16:34:07.860Z,33.00
2019-04-20T16:36:38.882Z,32.90
2019-04-20T16:39:09.720Z,32.70
2019-04-20T16:41:40.220Z,31.90
2019-04-20T16:44:09.570Z,31.10
2019-04-20T16:46:38.809Z,30.90
2019-04-20T16:49:08.466Z,30.80
2019-04-20T16:51:38.846Z,31.50
2019-04-20T16:54:09.988Z,31.40
2019-04-20T16:56:39.586Z,31.60
2019-04-20T16:59:13.239Z,31.70
2019-04-20T17:01:42.378Z,32.00
2019-04-20T17:04:15.455Z,31.90
2019-04-20T17:06:52.299Z,32.30
2019-04-20T17:09:21.981Z,32.70
2019-04-20T17:11:51.931Z,32.60
2019-04-20T17:14:23.744Z,32.60
2019-04-20T17:16:53.512Z,32.90
2019-04-20T17:19:23.859Z,32.80
2019-04-20T17:21:57.121Z,33.20
2019-04-20T17:24:25.186Z,33.40
2019-04-20T17:27:05.335Z,33.90
2019-04-20T17:29:45.598Z,33.80
2019-04-20T17:32:19.273Z,34.40
2019-04-20T17:35:06.001Z,34.40
2019-04-20T17:37:20.630Z,34.40
2019-04-20T17:40:14.360Z,34.60
2019-04-20T17:42:36.317Z,35.00
2019-04-20T17:45:00.740Z,34.80
2019-04-20T17:47:43.234Z,34.70
2019-04-20T17:50:12.546Z,34.80
2019-04-20T17:52:47.463Z,34.40
2019-04-20T17:55:03.351Z,34.50
2019-04-20T17:57:37.241Z,34.60
2019-04-20T18:00:17.604Z,34.70
2019-04-20T18:03:10.081Z,34.90
2019-04-20T18:05:54.636Z,35.00
2019-04-20T18:08:20.538Z,35.10
2019-04-20T18:10:45.957Z,35.50
2019-04-20T18:13:13.703Z,35.40
2019-04-20T18:15:48.829Z,35.50
2019-04-20T18:18:44.113Z,35.60
2019-04-20T18:21:04.544Z,35.70
2019-04-20T18:23:38.427Z,35.80
2019-04-20T18:26:27.580Z,36.10
2019-04-20T18:28:58.754Z,36.10
2019-04-20T18:31:33.483Z,36.70
2019-04-20T18:34:13.164Z,36.70
2019-04-20T18:36:42.829Z,36.70
2019-04-20T18:39:13.307Z,37.10
2019-04-20T18:41:45.546Z,37.00
2019-04-20T18:44:12.911Z,37.20
2019-04-20T18:47:09.538Z,37.40
2019-04-20T18:49:33.901Z,37.60
2019-04-20T18:51:48.061Z,37.50
2019-04-20T18:54:22.303Z,37.20
2019-04-20T18:56:52.558Z,37.40
2019-04-20T18:59:30.433Z,37.40
2019-04-20T19:01:54.999Z,37.50
2019-04-20T19:04:25.924Z,37.30
2019-04-20T19:06:57.269Z,37.20
2019-04-20T19:09:30.434Z,37.30
2019-04-20T19:12:04.632Z,37.40
2019-04-20T19:14:44.249Z,37.40
2019-04-20T19:17:58.060Z,37.20
2019-04-20T19:20:26.934Z,37.10
2019-04-20T19:22:58.014Z,36.70
2019-04-20T19:25:31.570Z,36.70
2019-04-20T19:28:01.294Z,36.60
2019-04-20T19:30:37.371Z,36.50
2019-04-20T19:33:20.552Z,36.40
2019-04-20T19:35:41.646Z,37.00
2019-04-20T19:38:10.266Z,36.90
2019-04-20T19:40:45.684Z,36.60
2019-04-20T19:43:15.701Z,37.30
2019-04-20T19:46:06.648Z,37.90
2019-04-20T19:48:22.112Z,38.00
2019-04-20T19:50:59.353Z,38.20
2019-04-20T19:53:44.608Z,38.50
2019-04-20T19:55:53.029Z,38.80
2019-04-20T19:58:22.350Z,38.90
2019-04-20T20:00:49.047Z,39.10
2019-04-20T20:03:17.526Z,39.20
2019-04-20T20:05:49.937Z,39.30
2019-04-20T20:08:23.658Z,39.40
2019-04-20T20:10:50.613Z,39.50
2019-04-20T20:13:20.430Z,39.50
2019-04-20T20:15:57.532Z,39.60
2019-04-20T20:18:40.940Z,39.50
2019-04-20T20:21:16.119Z,39.40
2019-04-20T20:23:34.501Z,39.50
2019-04-20T20:26:07.065Z,39.40
2019-04-20T20:28:47.012Z,39.40
2019-04-20T20:31:16.801Z,39.30
2019-04-20T20:33:55.936Z,39.50
2019-04-20T20:36:15.669Z,39.50
2019-04-20T20:38:46.882Z,39.90
2019-04-20T20:41:20.611Z,39.80
2019-04-20T20:43:56.348Z,39.80
2019-04-20T20:46:24.006Z,39.80
2019-04-20T20:49:06.260Z,40.00
2019-04-20T20:51:39.166Z,40.20
2019-04-20T20:53:57.615Z,40.30
2019-04-20T20:56:24.099Z,40.30
2019-04-20T20:58:59.540Z,40.60
2019-04-20T21:01:25.618Z,40.50
2019-04-20T21:03:54.256Z,40.50
2019-04-20T21:06:24.316Z,40.80
2019-04-20T21:08:56.717Z,40.80
2019-04-20T21:11:30.661Z,40.90
2019-04-20T21:13:57.668Z,40.90
2019-04-20T21:16:31.897Z,41.00
2019-04-20T21:19:13.260Z,41.20
2019-04-20T21:21:41.280Z,41.40
2019-04-20T21:24:11.039Z,41.20
2019-04-20T21:26:41.948Z,41.40
2019-04-20T21:29:08.122Z,41.20
2019-04-20T21:31:38.552Z,41.40
2019-04-20T21:34:13.148Z,41.30
2019-04-20T21:36:38.888Z,41.30
2019-04-20T21:39:16.185Z,41.40
2019-04-20T21:41:47.718Z,41.40
2019-04-20T21:44:15.567Z,41.60
2019-04-20T21:46:51.144Z,41.60
2019-04-20T21:49:33.533Z,41.50
2019-04-20T21:51:58.614Z,41.50
2019-04-20T21:54:22.345Z,41.60
2019-04-20T21:56:56.164Z,41.60
2019-04-20T21:59:30.621Z,41.50
2019-04-20T22:02:02.639Z,41.50
2019-04-20T22:04:25.155Z,41.30
2019-04-20T22:06:54.525Z,41.40
2019-04-20T22:09:25.186Z,41.40
2019-04-20T22:11:56.042Z,41.50
2019-04-20T22:14:28.442Z,41.60
2019-04-20T22:16:58.354Z,41.40
2019-04-20T22:19:40.128Z,41.40
2019-04-20T22:22:12.867Z,41.80
2019-04-20T22:24:46.562Z,41.60
2019-04-20T22:27:09.598Z,41.70
2019-04-20T22:29:34.363Z,41.70
2019-04-20T22:32:09.493Z,41.70
2019-04-20T22:34:35.241Z,41.60
2019-04-20T22:37:04.532Z,41.50
2019-04-20T22:39:43.236Z,41.70
2019-04-20T22:42:12.386Z,41.60
2019-04-20T22:44:39.546Z,41.70
2019-04-20T22:47:16.937Z,41.70
2019-04-20T22:49:52.933Z,41.70
2019-04-20T22:52:26.596Z,41.50
2019-04-20T22:54:54.768Z,41.80
2019-04-20T22:57:28.019Z,41.70
2019-04-20T22:59:51.886Z,41.40
2019-04-20T23:02:13.518Z,41.40
2019-04-20T23:04:43.071Z,41.60
2019-04-20T23:07:12.799Z,41.40
2019-04-20T23:09:48.674Z,41.50
2019-04-20T23:12:19.183Z,41.60
2019-04-20T23:14:45.005Z,41.30
2019-04-20T23:17:18.465Z,41.30
2019-04-20T23:19:49.455Z,41.40
2019-04-20T23:22:17.847Z,41.40
2019-04-20T23:24:47.202Z,41.60
2019-04-20T23:27:23.370Z,41.50
2019-04-20T23:29:47.029Z,41.40
2019-04-20T23:32:17.793Z,41.40
2019-04-20T23:34:49.068Z,41.50
2019-04-20T23:37:23.405Z,41.40
2019-04-20T23:39:50.947Z,41.50
2019-04-20T23:42:24.096Z,41.40
2019-04-20T23:45:13.572Z,41.30
2019-04-20T23:47:57.766Z,41.20
2019-04-20T23:50:43.562Z,41.30
2019-04-20T23:53:14.183Z,41.10
2019-04-20T23:55:25.651Z,41.20
2019-04-20T23:58:01.296Z,41.10
